createdAt,value
2022-08-05T00:00:46.444Z,18.10
2022-08-05T00:03:19.299Z,18.10
2022-08-05T00:06:05.770Z,18.00
2022-08-05T00:08:36.450Z,18.00
2022-08-05T00:11:24.015Z,18.00
2022-08-05T00:13:56.572Z,18.00
2022-08-05T00:16:36.510Z,18.00
2022-08-05T00:19:12.939Z,18.00
2022-08-05T00:21:42.704Z,18.00
2022-08-05T00:24:16.112Z,18.00
2022-08-05T00:26:51.947Z,18.00
2022-08-05T00:29:22.830Z,18.00
2022-08-05T00:32:12.635Z,17.90
2022-08-05T00:35:04.987Z,17.90
2022-08-05T00:37:50.891Z,17.90
2022-08-05T00:40:27.071Z,17.80
2022-08-05T00:42:59.553Z,17.90
2022-08-05T00:45:37.960Z,17.90
2022-08-05T00:48:08.166Z,17.80
2022-08-05T00:50:37.674Z,17.80
2022-08-05T00:53:09.806Z,17.90
2022-08-05T00:55:54.137Z,17.80
2022-08-05T00:58:27.539Z,17.90
2022-08-05T01:00:57.090Z,17.90
2022-08-05T01:03:31.037Z,17.80
2022-08-05T01:06:02.610Z,17.80
2022-08-05T01:08:42.834Z,17.80
2022-08-05T01:11:22.484Z,17.80
2022-08-05T01:14:08.771Z,17.70
2022-08-05T01:16:44.301Z,17.70
2022-08-05T01:19:36.775Z,17.70
2022-08-05T01:22:37.878Z,17.70
2022-08-05T01:25:39.703Z,17.70
2022-08-05T01:28:25.194Z,17.70
2022-08-05T01:30:58.021Z,17.70
2022-08-05T01:33:35.145Z,17.70
2022-08-05T01:36:12.820Z,17.70
2022-08-05T01:38:45.485Z,17.70
2022-08-05T01:41:15.901Z,17.70
2022-08-05T01:43:47.125Z,17.70
2022-08-05T01:46:41.896Z,17.60
2022-08-05T01:49:22.707Z,17.60
2022-08-05T01:51:58.048Z,17.60
2022-08-05T01:54:31.156Z,17.60
2022-08-05T01:58:09.315Z,17.60
2022-08-05T01:59:52.674Z,17.50
2022-08-05T02:02:28.079Z,17.50
2022-08-05T02:04:59.642Z,17.50
2022-08-05T02:07:30.315Z,17.50
2022-08-05T02:09:59.248Z,17.50
2022-08-05T02:12:35.405Z,17.40
2022-08-05T02:15:12.350Z,17.40
2022-08-05T02:18:32.446Z,17.40
2022-08-05T02:20:41.207Z,17.40
2022-08-05T02:23:13.527Z,17.30
2022-08-05T02:25:50.220Z,17.30
2022-08-05T02:28:29.113Z,17.40
2022-08-05T02:31:07.665Z,17.30
2022-08-05T02:33:48.563Z,17.30
2022-08-05T02:36:21.799Z,17.20
2022-08-05T02:38:58.001Z,17.30
2022-08-05T02:41:28.720Z,17.20
2022-08-05T02:44:13.127Z,17.20
2022-08-05T02:46:58.880Z,17.20
2022-08-05T02:49:35.945Z,17.20
2022-08-05T02:52:09.123Z,17.20
2022-08-05T02:54:41.265Z,17.20
2022-08-05T02:58:11.718Z,17.10
2022-08-05T03:00:01.451Z,17.20
2022-08-05T03:02:35.671Z,17.20
2022-08-05T03:05:05.296Z,17.10
2022-08-05T03:07:48.504Z,17.10
2022-08-05T03:10:25.170Z,17.10
2022-08-05T03:12:55.096Z,17.10
2022-08-05T03:15:24.299Z,17.10
2022-08-05T03:17:57.436Z,17.10
2022-08-05T03:20:26.438Z,17.10
2022-08-05T03:22:57.507Z,17.10
2022-08-05T03:26:03.730Z,17.10
2022-08-05T03:28:18.535Z,17.10
2022-08-05T03:30:48.910Z,17.10
2022-08-05T03:33:19.437Z,17.10
2022-08-05T03:35:49.835Z,17.10
2022-08-05T03:38:32.854Z,17.20
2022-08-05T03:41:08.461Z,17.10
2022-08-05T03:44:09.730Z,17.10
2022-08-05T03:46:29.941Z,17.20
2022-08-05T03:49:02.224Z,17.20
2022-08-05T03:52:48.601Z,17.20
2022-08-05T03:55:33.980Z,17.20
2022-08-05T03:57:29.116Z,17.20
2022-08-05T04:00:15.833Z,17.30
2022-08-05T04:02:57.519Z,17.30
2022-08-05T04:05:33.813Z,17.40
2022-08-05T04:08:05.730Z,17.40
2022-08-05T04:10:53.635Z,17.50
2022-08-05T04:13:23.243Z,17.50
2022-08-05T04:16:03.058Z,17.60
2022-08-05T04:18:34.288Z,17.60
2022-08-05T04:21:07.214Z,17.70
2022-08-05T04:24:05.273Z,17.70
2022-08-05T04:26:32.546Z,17.80
2022-08-05T04:29:01.168Z,17.90
2022-08-05T04:31:38.763Z,17.90
2022-08-05T04:34:31.917Z,18.00
2022-08-05T04:36:57.373Z,18.10
2022-08-05T04:39:27.514Z,18.20
2022-08-05T04:41:56.292Z,18.30
2022-08-05T04:44:30.104Z,18.30
2022-08-05T04:46:59.524Z,18.40
2022-08-05T04:49:38.722Z,18.50
2022-08-05T04:52:18.620Z,18.60
2022-08-05T04:54:47.128Z,18.70
2022-08-05T04:57:17.709Z,18.90
2022-08-05T04:59:47.941Z,19.00
2022-08-05T05:02:36.230Z,19.10
2022-08-05T05:05:16.805Z,19.20
2022-08-05T05:07:56.604Z,19.40
2022-08-05T05:10:29.880Z,19.50
2022-08-05T05:12:58.632Z,19.60
2022-08-05T05:15:57.341Z,19.70
2022-08-05T05:18:31.135Z,19.80
2022-08-05T05:21:03.454Z,19.90
2022-08-05T05:23:39.089Z,20.00
2022-08-05T05:26:28.656Z,20.10
2022-08-05T05:29:02.280Z,20.20
2022-08-05T05:34:01.969Z,20.40
2022-08-05T05:36:31.865Z,20.50
2022-08-05T05:39:03.790Z,20.60
2022-08-05T05:41:40.590Z,20.70
2022-08-05T05:44:35.545Z,20.90
2022-08-05T05:47:04.066Z,20.90
2022-08-05T05:49:33.535Z,21.10
2022-08-05T05:52:07.283Z,21.10
2022-08-05T05:54:51.091Z,21.20
2022-08-05T05:57:20.632Z,21.20
2022-08-05T05:59:49.215Z,21.30
2022-08-05T06:02:27.951Z,21.30
2022-08-05T06:05:16.327Z,21.40
2022-08-05T06:08:01.363Z,21.40
2022-08-05T06:10:36.442Z,21.50
2022-08-05T06:13:05.303Z,21.60
2022-08-05T06:16:31.006Z,21.70
2022-08-05T06:18:22.199Z,21.80
2022-08-05T06:20:59.938Z,21.90
2022-08-05T06:23:28.172Z,22.00
2022-08-05T06:26:21.420Z,22.10
2022-08-05T06:28:52.158Z,22.40
2022-08-05T06:31:22.098Z,22.60
2022-08-05T06:34:06.817Z,22.80
2022-08-05T06:36:57.678Z,23.00
2022-08-05T06:39:27.338Z,23.20
2022-08-05T06:41:58.946Z,23.30
2022-08-05T06:44:27.627Z,23.50
2022-08-05T06:46:56.014Z,23.50
2022-08-05T06:50:00.406Z,23.60
2022-08-05T06:52:36.978Z,23.70
2022-08-05T06:55:02.327Z,23.80
2022-08-05T06:58:03.836Z,23.80
2022-08-05T07:00:24.748Z,23.90
2022-08-05T07:02:54.383Z,24.00
2022-08-05T07:05:27.693Z,24.10
2022-08-05T07:08:10.758Z,24.20
2022-08-05T07:10:39.692Z,24.40
2022-08-05T07:13:58.069Z,24.60
2022-08-05T07:18:01.239Z,24.70
2022-08-05T07:22:28.662Z,24.90
2022-08-05T07:24:59.899Z,24.90
2022-08-05T07:27:57.949Z,25.00
2022-08-05T07:30:33.678Z,25.10
2022-08-05T07:33:08.993Z,25.20
2022-08-05T07:36:04.657Z,25.30
2022-08-05T07:38:34.149Z,25.30
2022-08-05T07:41:35.093Z,25.50
2022-08-05T07:43:56.236Z,25.60
2022-08-05T07:46:27.319Z,25.70
2022-08-05T07:49:03.591Z,25.90
2022-08-05T07:51:37.547Z,26.00
2022-08-05T07:54:11.435Z,26.20
2022-08-05T07:57:14.715Z,26.50
2022-08-05T07:59:39.104Z,26.90
2022-08-05T08:02:16.891Z,27.50
2022-08-05T08:04:48.303Z,28.00
2022-08-05T08:07:17.687Z,28.50
2022-08-05T08:09:46.524Z,28.80
2022-08-05T08:12:37.419Z,29.10
2022-08-05T08:15:14.156Z,29.50
2022-08-05T08:17:53.022Z,29.60
2022-08-05T08:21:00.344Z,29.60
2022-08-05T08:24:02.726Z,29.30
2022-08-05T08:26:02.770Z,29.30
2022-08-05T08:28:37.359Z,29.20
2022-08-05T08:31:21.612Z,29.20
2022-08-05T08:33:53.160Z,29.10
2022-08-05T08:36:39.188Z,29.10
2022-08-05T08:39:15.369Z,29.30
2022-08-05T08:41:51.966Z,29.20
2022-08-05T08:45:22.541Z,29.10
2022-08-05T08:48:07.685Z,29.20
2022-08-05T08:50:30.710Z,29.50
2022-08-05T08:53:11.812Z,29.60
2022-08-05T08:56:04.082Z,29.80
2022-08-05T08:58:43.683Z,30.00
2022-08-05T09:01:18.398Z,30.20
2022-08-05T09:03:48.232Z,30.00
2022-08-05T09:06:28.103Z,30.40
2022-08-05T09:08:59.296Z,30.70
2022-08-05T09:11:50.983Z,30.80
2022-08-05T09:14:56.936Z,31.40
2022-08-05T09:17:08.177Z,31.60
2022-08-05T09:20:02.004Z,32.10
2022-08-05T09:22:32.220Z,32.30
2022-08-05T09:25:13.889Z,32.50
2022-08-05T09:28:04.536Z,32.60
2022-08-05T09:30:34.618Z,32.70
2022-08-05T09:33:04.610Z,32.80
2022-08-05T09:35:33.361Z,32.80
2022-08-05T09:38:17.572Z,32.80
2022-08-05T09:40:52.221Z,32.70
2022-08-05T09:43:40.503Z,32.80
2022-08-05T09:46:27.427Z,32.80
2022-08-05T09:49:07.887Z,33.00
2022-08-05T09:51:48.866Z,32.90
2022-08-05T09:54:31.852Z,32.80
2022-08-05T09:57:01.460Z,32.80
2022-08-05T09:59:36.954Z,32.60
2022-08-05T10:02:06.374Z,32.50
2022-08-05T10:04:40.991Z,32.40
2022-08-05T10:07:14.112Z,32.50
2022-08-05T10:10:14.212Z,32.80
2022-08-05T10:12:49.796Z,32.90
2022-08-05T10:15:25.773Z,32.60
2022-08-05T10:18:07.434Z,32.90
2022-08-05T10:20:38.862Z,33.30
2022-08-05T10:23:08.905Z,33.50
2022-08-05T10:25:58.622Z,33.10
2022-08-05T10:28:30.507Z,32.80
2022-08-05T10:32:48.260Z,33.00
2022-08-05T10:33:54.205Z,32.70
2022-08-05T10:36:23.406Z,33.10
2022-08-05T10:38:57.638Z,33.20
2022-08-05T10:41:46.573Z,33.10
2022-08-05T10:44:19.294Z,33.50
2022-08-05T10:46:50.869Z,33.70
2022-08-05T10:49:27.001Z,33.90
2022-08-05T10:52:03.266Z,33.90
2022-08-05T10:54:57.055Z,33.80
2022-08-05T10:57:31.984Z,33.90
2022-08-05T11:00:19.677Z,34.10
2022-08-05T11:03:23.762Z,33.80
2022-08-05T11:06:15.651Z,33.70
2022-08-05T11:09:32.157Z,34.00
2022-08-05T11:12:43.713Z,34.10
2022-08-05T11:15:23.571Z,34.10
2022-08-05T11:18:30.135Z,34.30
2022-08-05T11:21:02.070Z,34.40
2022-08-05T11:24:03.812Z,34.60
2022-08-05T11:26:32.577Z,34.70
2022-08-05T11:29:11.761Z,34.80
2022-08-05T11:31:58.617Z,34.40
2022-08-05T11:34:51.125Z,34.30
2022-08-05T11:38:31.029Z,34.40
2022-08-05T11:41:15.429Z,34.50
2022-08-05T11:44:05.732Z,34.90
2022-08-05T11:46:58.217Z,35.00
2022-08-05T11:49:28.304Z,35.00
2022-08-05T11:51:57.714Z,34.90
2022-08-05T11:54:33.400Z,35.00
2022-08-05T11:57:07.943Z,34.90
2022-08-05T11:59:49.665Z,34.90
2022-08-05T12:02:29.812Z,35.20
2022-08-05T12:05:06.954Z,34.70
2022-08-05T12:08:09.333Z,34.80
2022-08-05T12:10:38.445Z,34.70
2022-08-05T12:13:16.684Z,34.70
2022-08-05T12:15:50.005Z,34.70
2022-08-05T12:18:32.649Z,35.00
2022-08-05T12:21:12.912Z,35.00
2022-08-05T12:23:54.546Z,35.10
2022-08-05T12:26:23.124Z,35.20
2022-08-05T12:28:52.472Z,35.10
2022-08-05T12:31:23.675Z,35.10
2022-08-05T12:34:03.130Z,35.00
2022-08-05T12:36:33.677Z,35.10
2022-08-05T12:39:05.651Z,35.20
2022-08-05T12:41:43.613Z,35.30
2022-08-05T12:44:21.560Z,35.40
2022-08-05T12:47:01.828Z,35.20
2022-08-05T12:50:02.306Z,35.20
2022-08-05T12:52:37.730Z,35.20
2022-08-05T12:55:22.092Z,35.20
2022-08-05T12:58:49.054Z,35.00
2022-08-05T13:02:00.871Z,34.80
2022-08-05T13:03:33.110Z,35.00
2022-08-05T13:06:01.636Z,35.00
2022-08-05T13:08:33.016Z,34.90
2022-08-05T13:11:02.309Z,35.00
2022-08-05T13:14:05.714Z,34.70
2022-08-05T13:16:24.951Z,34.80
2022-08-05T13:18:55.021Z,34.90
2022-08-05T13:21:28.247Z,34.90
2022-08-05T13:24:08.813Z,34.70
2022-08-05T13:26:37.432Z,35.00
2022-08-05T13:29:05.792Z,35.10
2022-08-05T13:32:04.330Z,35.00
2022-08-05T13:34:25.969Z,35.10
2022-08-05T13:36:55.008Z,35.20
2022-08-05T13:40:16.064Z,35.40
2022-08-05T13:42:14.062Z,35.50
2022-08-05T13:44:45.640Z,35.30
2022-08-05T13:47:34.568Z,35.10
2022-08-05T13:50:04.535Z,35.10
2022-08-05T13:52:35.477Z,35.00
2022-08-05T13:55:07.730Z,35.00
2022-08-05T13:57:51.267Z,35.00
2022-08-05T14:00:27.186Z,34.90
2022-08-05T14:02:57.084Z,35.40
2022-08-05T14:05:29.387Z,35.30
2022-08-05T14:08:20.980Z,35.40
2022-08-05T14:11:03.334Z,35.50
2022-08-05T14:13:48.285Z,35.60
2022-08-05T14:16:19.275Z,35.50
2022-08-05T14:18:47.677Z,35.60
2022-08-05T14:22:07.763Z,35.60
2022-08-05T14:24:04.389Z,35.70
2022-08-05T14:26:36.812Z,35.60
2022-08-05T14:29:16.188Z,35.80
2022-08-05T14:31:54.378Z,35.70
2022-08-05T14:34:35.687Z,35.70
2022-08-05T14:37:04.952Z,35.60
2022-08-05T14:39:49.598Z,35.30
2022-08-05T14:42:21.984Z,35.20
2022-08-05T14:44:50.450Z,34.90
2022-08-05T14:47:58.269Z,34.80
2022-08-05T14:50:17.694Z,34.80
2022-08-05T14:52:57.026Z,34.50
2022-08-05T14:55:38.385Z,34.50
2022-08-05T14:58:11.056Z,34.70
2022-08-05T15:00:58.868Z,34.70
2022-08-05T15:03:33.006Z,34.70
2022-08-05T15:06:08.354Z,34.70
2022-08-05T15:09:01.295Z,34.90
2022-08-05T15:11:51.525Z,35.00
2022-08-05T15:14:35.017Z,35.00
2022-08-05T15:17:44.788Z,34.80
2022-08-05T15:19:58.952Z,34.70
2022-08-05T15:22:28.124Z,34.90
2022-08-05T15:24:58.910Z,35.10
2022-08-05T15:27:32.274Z,35.10
2022-08-05T15:30:06.715Z,35.30
2022-08-05T15:32:35.085Z,35.30
2022-08-05T15:35:09.871Z,34.90
2022-08-05T15:38:33.410Z,35.00
2022-08-05T15:41:01.991Z,34.90
2022-08-05T15:43:20.159Z,35.10
2022-08-05T15:46:00.347Z,35.00
2022-08-05T15:48:29.917Z,34.80
2022-08-05T15:51:03.307Z,34.40
2022-08-05T15:53:38.265Z,34.40
2022-08-05T15:56:18.862Z,34.20
2022-08-05T15:58:47.488Z,34.50
2022-08-05T16:01:18.844Z,34.30
2022-08-05T16:03:50.834Z,34.10
2022-08-05T16:06:20.771Z,33.90
2022-08-05T16:08:53.756Z,33.50
2022-08-05T16:11:39.988Z,33.20
2022-08-05T16:14:17.375Z,32.80
2022-08-05T16:16:47.912Z,32.30
2022-08-05T16:19:25.906Z,32.00
2022-08-05T16:22:05.163Z,31.70
2022-08-05T16:24:41.380Z,31.50
2022-08-05T16:27:47.228Z,31.40
2022-08-05T16:30:23.390Z,31.20
2022-08-05T16:32:56.367Z,31.00
2022-08-05T16:35:28.301Z,30.90
2022-08-05T16:38:10.440Z,30.80
2022-08-05T16:40:51.846Z,30.70
2022-08-05T16:43:25.034Z,30.60
2022-08-05T16:46:03.791Z,30.60
2022-08-05T16:48:38.915Z,30.50
2022-08-05T16:51:08.964Z,30.40
2022-08-05T16:54:05.897Z,30.30
2022-08-05T16:56:29.206Z,30.20
2022-08-05T16:58:58.922Z,30.20
2022-08-05T17:01:53.264Z,30.00
2022-08-05T17:04:18.963Z,29.90
2022-08-05T17:06:53.024Z,29.80
2022-08-05T17:09:22.870Z,29.80
2022-08-05T17:11:55.987Z,29.70
2022-08-05T17:14:37.326Z,29.50
2022-08-05T17:17:14.636Z,29.50
2022-08-05T17:19:46.381Z,29.30
2022-08-05T17:22:17.813Z,29.20
2022-08-05T17:24:56.906Z,29.20
2022-08-05T17:27:27.615Z,29.10
2022-08-05T17:30:03.157Z,29.10
2022-08-05T17:32:33.823Z,29.00
2022-08-05T17:35:04.973Z,28.80
2022-08-05T17:37:41.895Z,28.70
2022-08-05T17:40:15.995Z,28.60
2022-08-05T17:42:51.991Z,28.40
2022-08-05T17:45:23.041Z,28.20
2022-08-05T17:47:54.928Z,28.00
2022-08-05T17:50:28.934Z,27.80
2022-08-05T17:53:00.031Z,27.70
2022-08-05T17:55:38.491Z,27.60
2022-08-05T17:58:11.202Z,27.40
2022-08-05T18:00:45.353Z,27.30
2022-08-05T18:03:48.459Z,27.20
2022-08-05T18:06:12.357Z,27.10
2022-08-05T18:08:52.190Z,27.10
2022-08-05T18:11:23.952Z,27.10
2022-08-05T18:14:04.205Z,27.00
2022-08-05T18:16:33.598Z,26.90
2022-08-05T18:19:02.011Z,26.80
2022-08-05T18:22:09.137Z,26.70
2022-08-05T18:24:21.005Z,26.60
2022-08-05T18:26:49.423Z,26.50
2022-08-05T18:29:17.703Z,26.40
2022-08-05T18:32:07.061Z,26.30
2022-08-05T18:34:41.561Z,26.30
2022-08-05T18:37:16.949Z,26.20
2022-08-05T18:40:33.811Z,26.10
2022-08-05T18:42:49.118Z,26.10
2022-08-05T18:45:17.406Z,25.90
2022-08-05T18:47:48.967Z,25.90
2022-08-05T18:50:42.091Z,25.80
2022-08-05T18:53:22.814Z,25.70
2022-08-05T18:55:53.399Z,25.60
2022-08-05T18:58:27.386Z,25.50
2022-08-05T19:00:57.487Z,25.50
2022-08-05T19:03:53.079Z,25.40
2022-08-05T19:06:20.105Z,25.30
2022-08-05T19:08:51.891Z,25.20
2022-08-05T19:11:28.392Z,25.10
2022-08-05T19:14:01.162Z,25.00
2022-08-05T19:16:47.057Z,25.00
2022-08-05T19:19:15.805Z,24.90
2022-08-05T19:21:51.571Z,24.80
2022-08-05T19:24:34.568Z,24.70
2022-08-05T19:27:04.140Z,24.70
2022-08-05T19:29:36.023Z,24.60
2022-08-05T19:32:05.628Z,24.50
2022-08-05T19:34:37.283Z,24.40
2022-08-05T19:37:06.751Z,24.30
2022-08-05T19:39:45.650Z,24.30
2022-08-05T19:42:34.950Z,24.10
2022-08-05T19:45:05.878Z,24.10
2022-08-05T19:47:37.723Z,24.10
2022-08-05T19:50:07.907Z,24.00
2022-08-05T19:52:38.968Z,24.00
2022-08-05T19:56:14.803Z,23.90
2022-08-05T19:58:19.592Z,23.80
2022-08-05T20:00:46.792Z,23.80
2022-08-05T20:03:15.032Z,23.70
2022-08-05T20:05:51.123Z,23.70
2022-08-05T20:08:20.135Z,23.70
2022-08-05T20:10:49.984Z,23.60
2022-08-05T20:13:30.192Z,23.50
2022-08-05T20:16:07.569Z,23.50
2022-08-05T20:18:36.479Z,23.50
2022-08-05T20:21:06.759Z,23.50
2022-08-05T20:23:39.324Z,23.50
2022-08-05T20:26:19.007Z,23.40
2022-08-05T20:28:48.719Z,23.30
2022-08-05T20:31:17.287Z,23.20
2022-08-05T20:33:45.864Z,23.20
2022-08-05T20:36:17.821Z,23.10
2022-08-05T20:38:54.412Z,23.00
2022-08-05T20:41:43.441Z,23.00
2022-08-05T20:44:17.852Z,23.00
2022-08-05T20:46:58.204Z,23.00
2022-08-05T20:49:26.542Z,22.90
2022-08-05T20:51:55.266Z,22.90
2022-08-05T20:54:25.260Z,22.90
2022-08-05T20:56:54.973Z,22.90
2022-08-05T20:59:26.762Z,22.80
2022-08-05T21:01:58.074Z,22.70
2022-08-05T21:04:27.300Z,22.60
2022-08-05T21:06:55.911Z,22.60
2022-08-05T21:09:24.328Z,22.60
2022-08-05T21:12:07.759Z,22.50
2022-08-05T21:14:40.301Z,22.60
2022-08-05T21:17:08.452Z,22.50
2022-08-05T21:19:46.584Z,22.40
2022-08-05T21:22:23.547Z,22.40
2022-08-05T21:24:54.267Z,22.30
2022-08-05T21:27:27.201Z,22.30
2022-08-05T21:29:56.356Z,22.30
2022-08-05T21:32:26.784Z,22.30
2022-08-05T21:35:08.918Z,22.30
2022-08-05T21:37:47.475Z,22.20
2022-08-05T21:40:21.913Z,22.20
2022-08-05T21:42:53.611Z,22.20
2022-08-05T21:45:24.517Z,22.10
2022-08-05T21:47:57.842Z,22.00
2022-08-05T21:50:26.656Z,22.00
2022-08-05T21:52:58.772Z,21.90
2022-08-05T21:55:42.842Z,21.80
2022-08-05T21:58:17.236Z,21.80
2022-08-05T22:00:51.298Z,21.70
2022-08-05T22:03:20.523Z,21.70
2022-08-05T22:06:08.216Z,21.60
2022-08-05T22:08:36.710Z,21.60
2022-08-05T22:11:11.912Z,21.70
2022-08-05T22:14:33.884Z,21.70
2022-08-05T22:16:50.662Z,21.70
2022-08-05T22:19:57.141Z,21.80
2022-08-05T22:22:08.640Z,21.80
2022-08-05T22:24:55.995Z,21.90
2022-08-05T22:28:09.743Z,21.90
2022-08-05T22:30:32.160Z,22.00
2022-08-05T22:33:03.794Z,22.10
2022-08-05T22:35:47.803Z,22.20
2022-08-05T22:38:19.657Z,22.40
2022-08-05T22:40:49.392Z,22.60
2022-08-05T22:43:37.170Z,22.80
2022-08-05T22:46:13.076Z,22.90
2022-08-05T22:48:49.385Z,23.00
2022-08-05T22:51:23.243Z,23.10
2022-08-05T22:54:05.944Z,23.20
2022-08-05T22:56:34.190Z,23.20
2022-08-05T22:59:03.977Z,23.20
2022-08-05T23:02:06.299Z,23.20
2022-08-05T23:04:36.477Z,23.10
2022-08-05T23:07:07.015Z,23.20
2022-08-05T23:09:57.281Z,23.10
2022-08-05T23:12:24.502Z,23.00
2022-08-05T23:14:53.049Z,23.00
2022-08-05T23:17:34.230Z,23.00
2022-08-05T23:20:16.313Z,22.90
2022-08-05T23:22:47.519Z,22.90
2022-08-05T23:25:50.923Z,22.90
2022-08-05T23:28:06.720Z,22.90
2022-08-05T23:30:39.962Z,22.90
2022-08-05T23:33:16.279Z,22.90
2022-08-05T23:35:51.202Z,22.90
2022-08-05T23:38:19.550Z,23.00
2022-08-05T23:40:49.887Z,23.20
2022-08-05T23:43:25.066Z,23.20
2022-08-05T23:46:21.196Z,23.10
2022-08-05T23:48:59.666Z,23.10
2022-08-05T23:51:45.679Z,23.20
2022-08-05T23:54:25.076Z,23.20
2022-08-05T23:57:03.146Z,23.20
